createdAt,value
2023-11-09T00:00:10.785Z,13.70
2023-11-09T00:02:58.567Z,12.54
2023-11-09T00:05:26.558Z,11.83
2023-11-09T00:07:54.617Z,11.33
2023-11-09T00:10:22.977Z,10.95
2023-11-09T00:12:52.601Z,10.64
2023-11-09T00:15:21.815Z,10.38
2023-11-09T00:17:49.976Z,10.17
2023-11-09T00:20:18.089Z,10.57
2023-11-09T00:22:47.760Z,13.04
2023-11-09T00:25:15.603Z,14.61
2023-11-09T00:27:43.432Z,13.80
2023-11-09T00:30:11.200Z,12.69
2023-11-09T00:32:38.882Z,11.90
2023-11-09T00:35:06.915Z,11.36
2023-11-09T00:37:34.794Z,10.96
2023-11-09T00:40:02.641Z,10.63
2023-11-09T00:42:30.631Z,10.36
2023-11-09T00:44:58.784Z,10.13
2023-11-09T00:47:26.598Z,10.48
2023-11-09T00:49:55.055Z,12.93
2023-11-09T00:52:23.273Z,14.51
2023-11-09T00:54:52.706Z,13.66
2023-11-09T00:57:25.718Z,12.62
2023-11-09T00:59:53.590Z,11.87
2023-11-09T01:02:21.960Z,11.39
2023-11-09T01:04:49.778Z,11.02
2023-11-09T01:07:18.185Z,10.73
2023-11-09T01:09:47.198Z,10.47
2023-11-09T01:12:15.203Z,10.23
2023-11-09T01:14:45.189Z,10.01
2023-11-09T01:17:12.950Z,9.80
2023-11-09T01:19:40.779Z,10.19
2023-11-09T01:22:08.748Z,12.75
2023-11-09T01:24:36.549Z,14.39
2023-11-09T01:27:04.314Z,13.56
2023-11-09T01:29:32.089Z,12.53
2023-11-09T01:32:00.085Z,11.82
2023-11-09T01:34:27.995Z,11.34
2023-11-09T01:36:55.917Z,10.97
2023-11-09T01:39:24.497Z,10.69
2023-11-09T01:41:52.675Z,10.46
2023-11-09T01:44:20.411Z,10.28
2023-11-09T01:46:54.702Z,10.12
2023-11-09T01:49:22.801Z,10.52
2023-11-09T01:51:55.749Z,12.95
2023-11-09T01:54:24.060Z,14.56
2023-11-09T01:56:52.231Z,13.74
2023-11-09T01:59:19.998Z,12.75
2023-11-09T02:01:47.867Z,12.07
2023-11-09T02:04:15.667Z,11.59
2023-11-09T02:06:43.769Z,11.25
2023-11-09T02:09:11.572Z,10.96
2023-11-09T02:11:39.642Z,10.70
2023-11-09T02:14:07.402Z,10.46
2023-11-09T02:16:35.665Z,10.25
2023-11-09T02:19:04.507Z,10.60
2023-11-09T02:21:32.786Z,13.12
2023-11-09T02:24:00.520Z,14.24
2023-11-09T02:26:28.374Z,13.24
2023-11-09T02:28:56.341Z,12.30
2023-11-09T02:31:24.139Z,11.65
2023-11-09T02:33:52.023Z,11.20
2023-11-09T02:36:20.589Z,10.85
2023-11-09T02:38:48.528Z,10.55
2023-11-09T02:41:16.294Z,10.30
2023-11-09T02:43:44.585Z,10.07
2023-11-09T02:46:13.069Z,9.84
2023-11-09T02:48:42.238Z,10.23
2023-11-09T02:51:10.233Z,12.79
2023-11-09T02:53:38.796Z,14.19
2023-11-09T02:56:09.529Z,13.24
2023-11-09T02:58:37.300Z,12.21
2023-11-09T03:01:05.109Z,11.52
2023-11-09T03:03:33.539Z,11.06
2023-11-09T03:06:01.436Z,10.71
2023-11-09T03:08:29.782Z,10.43
2023-11-09T03:10:57.559Z,10.19
2023-11-09T03:13:25.404Z,9.96
2023-11-09T03:15:53.290Z,9.73
2023-11-09T03:18:21.575Z,9.51
2023-11-09T03:20:49.427Z,9.85
2023-11-09T03:23:17.191Z,12.53
2023-11-09T03:25:44.957Z,13.89
2023-11-09T03:28:12.731Z,12.86
2023-11-09T03:30:40.690Z,11.79
2023-11-09T03:33:10.841Z,11.06
2023-11-09T03:35:38.579Z,10.56
2023-11-09T03:38:06.347Z,10.20
2023-11-09T03:40:34.125Z,9.90
2023-11-09T03:43:01.991Z,9.66
2023-11-09T03:45:29.934Z,9.44
2023-11-09T03:47:57.779Z,9.75
2023-11-09T03:50:25.670Z,12.24
2023-11-09T03:52:54.395Z,13.67
2023-11-09T03:55:22.356Z,12.74
2023-11-09T03:57:50.090Z,11.73
2023-11-09T04:00:20.067Z,11.03
2023-11-09T04:02:48.015Z,10.55
2023-11-09T04:05:15.850Z,10.19
2023-11-09T04:07:44.736Z,9.90
2023-11-09T04:10:14.199Z,9.64
2023-11-09T04:12:41.996Z,9.41
2023-11-09T04:15:10.821Z,9.21
2023-11-09T04:17:38.591Z,9.58
2023-11-09T04:20:08.175Z,12.13
2023-11-09T04:22:36.817Z,13.51
2023-11-09T04:25:05.161Z,12.55
2023-11-09T04:27:36.095Z,11.58
2023-11-09T04:30:04.740Z,10.90
2023-11-09T04:32:33.652Z,10.44
2023-11-09T04:35:01.474Z,10.10
2023-11-09T04:37:30.121Z,9.83
2023-11-09T04:40:00.005Z,9.58
2023-11-09T04:42:31.028Z,9.36
2023-11-09T04:44:58.844Z,9.16
2023-11-09T04:47:27.111Z,8.97
2023-11-09T04:50:03.416Z,9.33
2023-11-09T04:52:32.364Z,12.13
2023-11-09T04:55:12.354Z,13.38
2023-11-09T04:57:59.356Z,12.31
2023-11-09T05:00:47.257Z,11.24
2023-11-09T05:03:34.762Z,10.56
2023-11-09T05:06:32.121Z,10.09
2023-11-09T05:08:59.995Z,9.71
2023-11-09T05:11:29.598Z,9.44
2023-11-09T05:13:57.365Z,9.20
2023-11-09T05:16:25.544Z,8.98
2023-11-09T05:18:53.508Z,8.77
2023-11-09T05:21:22.395Z,8.59
2023-11-09T05:23:50.167Z,9.06
2023-11-09T05:26:18.127Z,11.73
2023-11-09T05:28:46.450Z,13.17
2023-11-09T05:31:14.284Z,12.21
2023-11-09T05:33:42.074Z,11.19
2023-11-09T05:36:09.924Z,10.49
2023-11-09T05:38:37.769Z,10.02
2023-11-09T05:41:05.740Z,9.67
2023-11-09T05:43:33.429Z,9.39
2023-11-09T05:46:01.202Z,9.15
2023-11-09T05:48:28.985Z,8.92
2023-11-09T05:50:58.753Z,8.72
2023-11-09T05:53:27.938Z,8.54
2023-11-09T05:55:55.708Z,8.97
2023-11-09T05:58:23.948Z,11.59
2023-11-09T06:00:53.584Z,13.21
2023-11-09T06:03:22.420Z,12.30
2023-11-09T06:05:51.994Z,11.25
2023-11-09T06:08:20.565Z,10.54
2023-11-09T06:10:50.823Z,10.07
2023-11-09T06:13:20.280Z,9.71
2023-11-09T06:15:48.677Z,9.44
2023-11-09T06:18:17.789Z,9.21
2023-11-09T06:20:48.429Z,9.01
2023-11-09T06:23:16.265Z,8.82
2023-11-09T06:25:44.608Z,8.67
2023-11-09T06:28:12.796Z,8.53
2023-11-09T06:30:40.684Z,8.98
2023-11-09T06:33:10.832Z,11.69
2023-11-09T06:35:40.412Z,13.39
2023-11-09T06:38:09.913Z,12.48
2023-11-09T06:40:37.638Z,11.42
2023-11-09T06:43:05.517Z,10.72
2023-11-09T06:45:33.312Z,10.26
2023-11-09T06:48:01.115Z,9.92
2023-11-09T06:50:28.992Z,9.64
2023-11-09T06:52:57.220Z,9.41
2023-11-09T06:55:26.094Z,9.21
2023-11-09T06:57:58.416Z,9.02
2023-11-09T07:00:26.555Z,8.86
2023-11-09T07:02:58.749Z,8.72
2023-11-09T07:05:27.203Z,8.58
2023-11-09T07:07:57.799Z,9.34
2023-11-09T07:10:25.653Z,12.23
2023-11-09T07:12:53.564Z,13.39
2023-11-09T07:15:21.785Z,12.38
2023-11-09T07:17:49.538Z,11.44
2023-11-09T07:20:17.368Z,10.82
2023-11-09T07:22:45.136Z,10.41
2023-11-09T07:25:14.197Z,10.12
2023-11-09T07:27:42.309Z,9.90
2023-11-09T07:30:10.072Z,9.71
2023-11-09T07:32:37.827Z,9.54
2023-11-09T07:35:06.821Z,9.39
2023-11-09T07:37:34.619Z,9.27
2023-11-09T07:40:04.719Z,9.15
2023-11-09T07:42:32.703Z,9.07
2023-11-09T07:45:00.444Z,9.54
2023-11-09T07:47:29.045Z,12.19
2023-11-09T07:49:58.337Z,14.00
2023-11-09T07:52:27.275Z,13.24
2023-11-09T07:54:56.015Z,12.21
2023-11-09T07:57:24.072Z,11.54
2023-11-09T07:59:51.851Z,11.11
2023-11-09T08:02:21.137Z,10.83
2023-11-09T08:04:49.625Z,10.62
2023-11-09T08:07:17.399Z,10.44
2023-11-09T08:09:45.146Z,10.29
2023-11-09T08:12:13.050Z,10.17
2023-11-09T08:14:40.983Z,10.06
2023-11-09T08:17:16.154Z,9.99
2023-11-09T08:19:50.927Z,9.94
2023-11-09T08:22:18.965Z,9.91
2023-11-09T08:24:47.194Z,9.90
2023-11-09T08:27:14.958Z,9.88
2023-11-09T08:29:42.726Z,9.86
2023-11-09T08:32:11.764Z,9.84
2023-11-09T08:34:41.752Z,9.85
2023-11-09T08:37:11.900Z,9.85
2023-11-09T08:39:39.925Z,9.86
2023-11-09T08:42:07.791Z,9.88
2023-11-09T08:44:37.398Z,9.91
2023-11-09T08:47:05.104Z,10.50
2023-11-09T08:49:33.004Z,13.16
2023-11-09T08:52:05.776Z,14.75
2023-11-09T08:54:33.677Z,14.01
2023-11-09T08:57:01.545Z,13.18
2023-11-09T08:59:32.229Z,12.64
2023-11-09T09:02:03.345Z,12.29
2023-11-09T09:04:31.415Z,12.05
2023-11-09T09:06:59.187Z,11.89
2023-11-09T09:09:34.527Z,11.76
2023-11-09T09:12:11.102Z,11.66
2023-11-09T09:14:38.933Z,11.57
2023-11-09T09:17:06.875Z,11.51
2023-11-09T09:19:35.173Z,11.46
2023-11-09T09:22:05.298Z,11.41
2023-11-09T09:24:33.062Z,11.38
2023-11-09T09:27:00.826Z,11.36
2023-11-09T09:29:31.054Z,11.35
2023-11-09T09:31:59.877Z,11.34
2023-11-09T09:34:27.823Z,11.34
2023-11-09T09:36:59.960Z,11.33
2023-11-09T09:39:29.285Z,11.31
2023-11-09T09:42:00.383Z,11.31
2023-11-09T09:44:28.181Z,11.31
2023-11-09T09:46:56.968Z,11.33
2023-11-09T09:49:27.300Z,11.37
2023-11-09T09:51:56.085Z,11.40
2023-11-09T09:54:25.075Z,11.44
2023-11-09T09:56:55.189Z,11.47
2023-11-09T09:59:23.879Z,11.51
2023-11-09T10:01:51.840Z,11.56
2023-11-09T10:04:20.180Z,11.61
2023-11-09T10:06:48.203Z,11.64
2023-11-09T10:09:16.743Z,11.69
2023-11-09T10:11:44.849Z,11.74
2023-11-09T10:14:13.249Z,11.80
2023-11-09T10:16:42.664Z,11.87
2023-11-09T10:19:11.053Z,11.95
2023-11-09T10:21:39.493Z,12.03
2023-11-09T10:24:07.668Z,12.09
2023-11-09T10:26:35.977Z,12.17
2023-11-09T10:29:05.200Z,12.23
2023-11-09T10:31:33.133Z,12.28
2023-11-09T10:34:02.160Z,12.34
2023-11-09T10:36:30.171Z,12.38
2023-11-09T10:38:57.939Z,12.40
2023-11-09T10:41:53.791Z,12.44
2023-11-09T10:44:19.479Z,12.46
2023-11-09T10:46:47.205Z,12.50
2023-11-09T10:49:15.177Z,12.53
2023-11-09T10:51:45.734Z,12.56
2023-11-09T10:54:13.504Z,12.59
2023-11-09T10:56:41.206Z,12.62
2023-11-09T10:59:10.104Z,12.66
2023-11-09T11:01:38.133Z,12.71
2023-11-09T11:04:09.916Z,12.75
2023-11-09T11:06:38.184Z,12.78
2023-11-09T11:09:09.822Z,12.79
2023-11-09T11:11:38.095Z,12.80
2023-11-09T11:14:06.985Z,12.81
2023-11-09T11:16:35.121Z,12.82
2023-11-09T11:19:08.032Z,12.81
2023-11-09T11:21:37.590Z,12.79
2023-11-09T11:24:06.233Z,12.77
2023-11-09T11:26:47.868Z,12.75
2023-11-09T11:29:22.559Z,12.72
2023-11-09T11:31:50.522Z,12.71
2023-11-09T11:34:18.319Z,12.70
2023-11-09T11:36:49.219Z,12.71
2023-11-09T11:39:22.460Z,12.72
2023-11-09T11:41:51.668Z,12.73
2023-11-09T11:44:24.407Z,12.76
2023-11-09T11:46:59.532Z,12.79
2023-11-09T11:49:27.301Z,12.82
2023-11-09T11:51:55.156Z,12.84
2023-11-09T11:54:23.844Z,12.85
2023-11-09T11:56:53.142Z,12.84
2023-11-09T11:59:24.038Z,12.84
2023-11-09T12:01:52.536Z,12.82
2023-11-09T12:04:20.428Z,12.80
2023-11-09T12:06:48.387Z,12.77
2023-11-09T12:09:16.983Z,12.74
2023-11-09T12:11:45.493Z,12.72
2023-11-09T12:14:13.679Z,12.69
2023-11-09T12:16:41.749Z,12.67
2023-11-09T12:19:13.873Z,12.66
2023-11-09T12:21:42.194Z,12.63
2023-11-09T12:24:14.943Z,12.62
2023-11-09T12:26:44.075Z,12.62
2023-11-09T12:29:12.264Z,12.63
2023-11-09T12:31:40.094Z,12.62
2023-11-09T12:34:09.227Z,12.61
2023-11-09T12:36:39.214Z,12.59
2023-11-09T12:39:25.995Z,12.56
2023-11-09T12:41:54.072Z,12.52
2023-11-09T12:44:23.061Z,12.49
2023-11-09T12:46:50.843Z,12.46
2023-11-09T12:49:18.645Z,12.44
2023-11-09T12:51:48.501Z,12.42
2023-11-09T12:54:16.272Z,12.39
2023-11-09T12:56:46.387Z,12.36
2023-11-09T12:59:16.199Z,12.32
2023-11-09T13:01:44.901Z,12.29
2023-11-09T13:04:23.435Z,12.26
2023-11-09T13:06:51.471Z,12.22
2023-11-09T13:09:39.690Z,12.18
2023-11-09T13:12:26.685Z,12.13
2023-11-09T13:15:12.727Z,12.07
2023-11-09T13:17:54.426Z,12.03
2023-11-09T13:20:30.685Z,11.98
2023-11-09T13:23:06.744Z,11.92
2023-11-09T13:25:36.205Z,11.87
2023-11-09T13:28:05.444Z,11.83
2023-11-09T13:30:35.096Z,11.79
2023-11-09T13:33:15.671Z,11.76
2023-11-09T13:35:49.005Z,11.73
2023-11-09T13:38:31.110Z,11.70
2023-11-09T13:41:13.751Z,11.65
2023-11-09T13:43:50.455Z,11.62
2023-11-09T13:46:24.046Z,11.58
2023-11-09T13:48:52.511Z,11.54
2023-11-09T13:51:28.565Z,11.50
2023-11-09T13:54:19.436Z,11.46
2023-11-09T13:57:02.358Z,11.43
2023-11-09T13:59:33.196Z,11.39
2023-11-09T14:02:00.960Z,11.37
2023-11-09T14:04:32.497Z,11.35
2023-11-09T14:07:03.271Z,11.33
2023-11-09T14:09:38.280Z,11.30
2023-11-09T14:12:13.620Z,11.27
2023-11-09T14:14:47.740Z,11.24
2023-11-09T14:17:19.316Z,11.20
2023-11-09T14:19:55.561Z,11.16
2023-11-09T14:22:25.478Z,11.11
2023-11-09T14:24:55.325Z,11.06
2023-11-09T14:27:29.705Z,11.02
2023-11-09T14:29:58.999Z,10.98
2023-11-09T14:32:27.874Z,10.94
2023-11-09T14:34:56.114Z,10.90
2023-11-09T14:37:24.232Z,10.87
2023-11-09T14:40:10.946Z,10.84
2023-11-09T14:42:39.113Z,10.82
2023-11-09T14:45:07.203Z,10.79
2023-11-09T14:47:43.744Z,10.74
2023-11-09T14:50:20.829Z,10.75
2023-11-09T14:52:58.256Z,12.47
2023-11-09T14:55:29.076Z,14.79
2023-11-09T14:57:59.194Z,14.29
2023-11-09T15:00:28.391Z,13.38
2023-11-09T15:02:57.720Z,12.76
2023-11-09T15:05:29.458Z,12.35
2023-11-09T15:07:59.275Z,12.03
2023-11-09T15:10:27.373Z,11.78
2023-11-09T15:12:55.341Z,11.57
2023-11-09T15:15:23.785Z,11.36
2023-11-09T15:17:51.866Z,11.19
2023-11-09T15:20:28.529Z,11.04
2023-11-09T15:23:01.064Z,10.90
2023-11-09T15:25:32.509Z,10.77
2023-11-09T15:28:02.301Z,10.65
2023-11-09T15:30:31.408Z,10.57
2023-11-09T15:33:01.671Z,10.48
2023-11-09T15:35:29.393Z,10.40
2023-11-09T15:38:00.834Z,10.33
2023-11-09T15:41:09.912Z,10.27
2023-11-09T15:43:19.849Z,10.21
2023-11-09T15:45:53.103Z,10.15
2023-11-09T15:48:21.026Z,10.12
2023-11-09T15:50:51.109Z,10.09
2023-11-09T15:53:18.916Z,10.05
2023-11-09T15:55:47.282Z,10.01
2023-11-09T15:58:16.290Z,9.98
2023-11-09T16:00:47.365Z,9.95
2023-11-09T16:03:15.378Z,9.93
2023-11-09T16:05:43.980Z,9.91
2023-11-09T16:08:12.070Z,9.88
2023-11-09T16:10:41.853Z,9.86
2023-11-09T16:13:09.634Z,9.84
2023-11-09T16:15:37.396Z,9.82
2023-11-09T16:18:06.024Z,9.80
2023-11-09T16:20:36.291Z,9.77
2023-11-09T16:23:07.643Z,10.42
2023-11-09T16:25:35.810Z,13.21
2023-11-09T16:28:07.933Z,14.28
2023-11-09T16:30:39.144Z,13.33
2023-11-09T16:33:09.655Z,12.48
2023-11-09T16:35:38.185Z,11.94
2023-11-09T16:38:06.438Z,11.59
2023-11-09T16:40:35.749Z,11.34
2023-11-09T16:43:04.528Z,11.12
2023-11-09T16:45:32.503Z,10.94
2023-11-09T16:48:00.418Z,10.78
2023-11-09T16:50:28.314Z,10.64
2023-11-09T16:52:56.031Z,10.51
2023-11-09T16:55:24.164Z,10.39
2023-11-09T16:57:52.429Z,10.29
2023-11-09T17:00:20.192Z,10.19
2023-11-09T17:02:49.031Z,10.10
2023-11-09T17:05:18.101Z,10.01
2023-11-09T17:07:47.047Z,9.91
2023-11-09T17:10:18.221Z,9.80
2023-11-09T17:12:45.986Z,9.72
2023-11-09T17:15:14.833Z,10.11
2023-11-09T17:17:43.511Z,12.64
2023-11-09T17:20:12.044Z,14.42
2023-11-09T17:22:40.664Z,13.69
2023-11-09T17:25:09.636Z,12.73
2023-11-09T17:27:37.623Z,12.04
2023-11-09T17:30:13.128Z,11.60
2023-11-09T17:32:41.690Z,11.27
2023-11-09T17:35:10.495Z,11.01
2023-11-09T17:37:39.021Z,10.80
2023-11-09T17:40:12.781Z,10.62
2023-11-09T17:42:40.975Z,10.44
2023-11-09T17:45:08.718Z,10.30
2023-11-09T17:47:39.653Z,10.16
2023-11-09T17:50:09.784Z,10.04
2023-11-09T17:52:38.481Z,9.92
2023-11-09T17:55:06.538Z,9.83
2023-11-09T17:57:34.860Z,9.75
2023-11-09T18:00:02.846Z,9.68
2023-11-09T18:02:30.826Z,9.62
2023-11-09T18:04:58.661Z,9.56
2023-11-09T18:07:26.506Z,10.02
2023-11-09T18:09:54.559Z,12.56
2023-11-09T18:12:22.455Z,14.33
2023-11-09T18:14:50.815Z,13.61
2023-11-09T18:17:18.633Z,12.64
2023-11-09T18:19:46.635Z,11.97
2023-11-09T18:22:14.716Z,11.52
2023-11-09T18:24:42.474Z,11.20
2023-11-09T18:27:10.248Z,10.96
2023-11-09T18:29:38.105Z,10.76
2023-11-09T18:32:05.965Z,10.58
2023-11-09T18:34:34.062Z,10.42
2023-11-09T18:37:01.807Z,10.29
2023-11-09T18:39:31.313Z,10.18
2023-11-09T18:41:59.486Z,10.05
2023-11-09T18:44:27.256Z,9.94
2023-11-09T18:46:55.202Z,9.84
2023-11-09T18:51:54.539Z,9.69
2023-11-09T18:54:22.302Z,9.62
2023-11-09T18:56:50.165Z,9.57
2023-11-09T18:59:17.932Z,9.52
2023-11-09T19:01:45.845Z,9.90
2023-11-09T19:06:44.428Z,14.17
2023-11-09T19:09:13.287Z,13.45
2023-11-09T19:11:43.604Z,12.51
2023-11-09T19:14:11.685Z,11.85
2023-11-09T19:16:39.429Z,11.44
2023-11-09T19:19:07.257Z,11.13
2023-11-09T19:24:06.020Z,10.70
2023-11-09T19:26:33.783Z,10.52
2023-11-09T19:29:01.558Z,10.38
2023-11-09T19:31:29.241Z,10.25
2023-11-09T19:33:57.690Z,10.14
2023-11-09T19:36:26.887Z,10.03
2023-11-09T19:38:55.607Z,9.93
2023-11-09T19:41:23.338Z,9.84
2023-11-09T19:43:51.511Z,9.76
2023-11-09T19:46:21.257Z,9.69
2023-11-09T19:48:49.117Z,9.63
2023-11-09T19:51:16.994Z,9.59
2023-11-09T19:53:45.498Z,9.53
2023-11-09T19:56:13.336Z,9.50
2023-11-09T19:58:41.372Z,9.47
2023-11-09T20:01:09.184Z,9.43
2023-11-09T20:03:37.105Z,9.86
2023-11-09T20:06:05.108Z,12.42
2023-11-09T20:08:32.947Z,14.21
2023-11-09T20:11:01.738Z,13.53
2023-11-09T20:13:29.627Z,12.56
2023-11-09T20:15:57.859Z,11.90
2023-11-09T20:18:25.751Z,11.45
2023-11-09T20:20:53.605Z,11.15
2023-11-09T20:23:21.371Z,10.91
2023-11-09T20:25:49.566Z,10.72
2023-11-09T20:28:18.437Z,10.56
2023-11-09T20:30:46.210Z,10.40
2023-11-09T20:33:14.041Z,10.27
2023-11-09T20:35:41.951Z,10.15
2023-11-09T20:38:13.086Z,10.05
2023-11-09T20:40:40.945Z,9.95
2023-11-09T20:43:10.241Z,9.88
2023-11-09T20:45:39.897Z,9.80
2023-11-09T20:48:10.883Z,9.73
2023-11-09T20:50:38.964Z,9.64
2023-11-09T20:53:07.552Z,9.57
2023-11-09T20:55:36.131Z,9.51
2023-11-09T20:58:06.062Z,9.45
2023-11-09T21:00:35.837Z,10.01
2023-11-09T21:03:05.809Z,12.79
2023-11-09T21:05:36.116Z,14.56
2023-11-09T21:08:03.981Z,13.74
2023-11-09T21:10:33.566Z,12.72
2023-11-09T21:13:02.266Z,12.02
2023-11-09T21:15:30.151Z,11.57
2023-11-09T21:17:59.485Z,11.22
2023-11-09T21:20:28.010Z,10.97
2023-11-09T21:22:55.771Z,10.74
2023-11-09T21:25:23.536Z,10.52
2023-11-09T21:27:51.812Z,10.32
2023-11-09T21:30:19.651Z,10.16
2023-11-09T21:32:47.589Z,10.02
2023-11-09T21:35:18.462Z,9.86
2023-11-09T21:37:46.620Z,9.72
2023-11-09T21:40:16.244Z,9.58
2023-11-09T21:42:44.383Z,9.96
2023-11-09T21:45:15.469Z,12.54
2023-11-09T21:47:43.747Z,14.19
2023-11-09T21:50:11.664Z,13.33
2023-11-09T21:52:39.382Z,12.35
2023-11-09T21:55:10.423Z,11.72
2023-11-09T21:57:39.579Z,11.29
2023-11-09T22:00:08.537Z,11.00
2023-11-09T22:02:36.403Z,10.77
2023-11-09T22:05:04.673Z,10.57
2023-11-09T22:07:32.523Z,10.39
2023-11-09T22:10:01.880Z,10.23
2023-11-09T22:12:29.989Z,10.08
2023-11-09T22:14:58.087Z,9.95
2023-11-09T22:17:26.159Z,9.84
2023-11-09T22:19:53.909Z,9.74
2023-11-09T22:22:21.669Z,9.64
2023-11-09T22:24:50.294Z,9.56
2023-11-09T22:27:19.356Z,9.49
2023-11-09T22:29:47.224Z,9.99
2023-11-09T22:32:14.978Z,12.63
2023-11-09T22:34:42.769Z,14.12
2023-11-09T22:37:11.755Z,13.22
2023-11-09T22:39:39.891Z,12.23
2023-11-09T22:42:10.725Z,11.58
2023-11-09T22:44:38.612Z,11.17
2023-11-09T22:47:07.103Z,10.87
2023-11-09T22:49:34.758Z,10.63
2023-11-09T22:52:02.643Z,10.40
2023-11-09T22:54:31.984Z,10.19
2023-11-09T22:56:59.892Z,9.98
2023-11-09T22:59:27.656Z,9.78
2023-11-09T23:01:55.446Z,9.62
2023-11-09T23:04:23.354Z,10.11
2023-11-09T23:06:51.157Z,12.66
2023-11-09T23:09:19.514Z,13.85
2023-11-09T23:11:47.533Z,12.88
2023-11-09T23:14:15.367Z,11.90
2023-11-09T23:16:43.161Z,11.20
2023-11-09T23:19:11.000Z,10.74
2023-11-09T23:21:40.636Z,10.40
2023-11-09T23:24:08.491Z,10.12
2023-11-09T23:26:36.346Z,9.90
2023-11-09T23:29:04.219Z,9.70
2023-11-09T23:31:32.000Z,9.55
2023-11-09T23:34:02.000Z,9.81
2023-11-09T23:36:30.352Z,12.20
2023-11-09T23:38:58.241Z,13.77
2023-11-09T23:41:25.999Z,13.00
2023-11-09T23:43:53.762Z,12.05
2023-11-09T23:46:21.564Z,11.39
2023-11-09T23:48:49.423Z,10.98
2023-11-09T23:51:18.432Z,10.68
2023-11-09T23:53:46.463Z,10.43
2023-11-09T23:56:14.226Z,10.24
2023-11-09T23:58:41.993Z,10.06
